createdAt,value
2017-07-11T00:00:24.678Z,20.60
2017-07-11T00:02:53.704Z,20.40
2017-07-11T00:05:21.972Z,20.40
2017-07-11T00:07:50.280Z,20.40
2017-07-11T00:10:19.316Z,20.40
2017-07-11T00:12:47.580Z,20.30
2017-07-11T00:15:15.884Z,20.30
2017-07-11T00:17:44.917Z,20.30
2017-07-11T00:20:13.181Z,20.30
2017-07-11T00:22:41.482Z,20.20
2017-07-11T00:25:10.513Z,20.10
2017-07-11T00:27:38.785Z,20.10
2017-07-11T00:30:07.093Z,20.10
2017-07-11T00:32:36.133Z,20.10
2017-07-11T00:35:04.401Z,20.00
2017-07-11T00:37:32.873Z,20.00
2017-07-11T00:40:01.158Z,19.90
2017-07-11T00:42:29.460Z,19.90
2017-07-11T00:44:57.765Z,19.90
2017-07-11T00:47:26.034Z,19.90
2017-07-11T00:49:55.073Z,19.90
2017-07-11T00:52:23.575Z,19.80
2017-07-11T00:54:52.616Z,19.90
2017-07-11T00:57:21.888Z,19.80
2017-07-11T00:59:50.193Z,19.80
2017-07-11T01:02:18.463Z,19.70
2017-07-11T01:04:46.725Z,19.70
2017-07-11T01:07:15.792Z,19.50
2017-07-11T01:09:44.061Z,19.50
2017-07-11T01:12:13.101Z,19.40
2017-07-11T01:14:41.417Z,19.40
2017-07-11T01:17:10.447Z,19.40
2017-07-11T01:19:38.713Z,19.30
2017-07-11T01:22:07.024Z,19.30
2017-07-11T01:24:36.071Z,19.20
2017-07-11T01:27:04.337Z,19.20
2017-07-11T01:29:32.813Z,19.10
2017-07-11T01:32:01.856Z,19.10
2017-07-11T01:37:04.865Z,19.10
2017-07-11T01:39:33.134Z,19.00
2017-07-11T01:42:02.164Z,18.80
2017-07-11T01:44:30.476Z,18.80
2017-07-11T01:46:59.525Z,18.90
2017-07-11T01:49:27.811Z,18.80
2017-07-11T01:51:57.489Z,18.80
2017-07-11T01:54:25.752Z,18.80
2017-07-11T01:56:54.021Z,18.80
2017-07-11T01:59:22.349Z,18.80
2017-07-11T02:01:50.620Z,18.80
2017-07-11T02:04:18.888Z,18.70
2017-07-11T02:06:47.197Z,18.70
2017-07-11T02:09:15.469Z,18.60
2017-07-11T02:11:43.740Z,18.70
2017-07-11T02:14:12.041Z,18.70
2017-07-11T02:16:40.305Z,18.70
2017-07-11T02:19:08.580Z,18.60
2017-07-11T02:21:37.656Z,18.70
2017-07-11T02:24:06.698Z,18.60
2017-07-11T02:26:34.960Z,18.50
2017-07-11T02:29:03.279Z,18.60
2017-07-11T02:31:31.550Z,18.70
2017-07-11T02:33:59.824Z,18.70
2017-07-11T02:36:28.159Z,18.80
2017-07-11T02:38:57.273Z,18.70
2017-07-11T02:41:27.205Z,18.60
2017-07-11T02:43:55.488Z,18.50
2017-07-11T02:46:24.524Z,18.70
2017-07-11T02:48:52.943Z,18.60
2017-07-11T02:51:21.976Z,18.60
2017-07-11T02:53:50.242Z,18.60
2017-07-11T02:56:18.545Z,18.70
2017-07-11T02:58:46.825Z,18.60
2017-07-11T03:01:15.095Z,18.60
2017-07-11T03:03:43.423Z,18.70
2017-07-11T03:06:12.448Z,18.60
2017-07-11T03:08:40.780Z,18.60
2017-07-11T03:11:09.100Z,18.70
2017-07-11T03:13:37.376Z,18.70
2017-07-11T03:16:07.677Z,18.60
2017-07-11T03:18:35.980Z,18.50
2017-07-11T03:21:04.245Z,18.50
2017-07-11T03:23:32.511Z,18.50
2017-07-11T03:26:02.164Z,18.50
2017-07-11T03:28:30.432Z,18.50
2017-07-11T03:30:59.465Z,18.50
2017-07-11T03:33:27.773Z,18.50
2017-07-11T03:35:56.806Z,18.60
2017-07-11T03:38:25.068Z,18.50
2017-07-11T03:40:53.381Z,18.60
2017-07-11T03:43:21.653Z,18.60
2017-07-11T03:45:49.921Z,18.60
2017-07-11T03:48:18.236Z,18.50
2017-07-11T03:50:46.509Z,18.40
2017-07-11T03:53:15.558Z,18.40
2017-07-11T03:55:43.860Z,18.30
2017-07-11T03:58:12.892Z,18.30
2017-07-11T04:00:41.160Z,18.20
2017-07-11T04:03:09.661Z,18.40
2017-07-11T04:05:38.700Z,18.40
2017-07-11T04:08:06.991Z,18.30
2017-07-11T04:10:35.293Z,18.20
2017-07-11T04:13:03.568Z,18.20
2017-07-11T04:15:31.837Z,18.20
2017-07-11T04:18:00.136Z,18.20
2017-07-11T04:20:28.408Z,18.10
2017-07-11T04:22:57.440Z,17.80
2017-07-11T04:25:25.770Z,17.80
2017-07-11T04:27:54.044Z,17.70
2017-07-11T04:30:22.309Z,17.70
2017-07-11T04:32:50.616Z,17.60
2017-07-11T04:35:18.888Z,17.60
2017-07-11T04:37:47.152Z,17.70
2017-07-11T04:40:16.227Z,17.70
2017-07-11T04:42:44.497Z,17.60
2017-07-11T04:45:13.529Z,17.80
2017-07-11T04:47:41.844Z,17.70
2017-07-11T04:50:10.876Z,17.70
2017-07-11T04:52:39.166Z,17.70
2017-07-11T04:55:07.476Z,17.70
2017-07-11T04:57:35.748Z,17.70
2017-07-11T05:00:04.012Z,17.70
2017-07-11T05:02:32.309Z,17.80
2017-07-11T05:05:00.572Z,17.70
2017-07-11T05:07:28.849Z,17.80
2017-07-11T05:09:58.025Z,17.70
2017-07-11T05:12:27.057Z,17.50
2017-07-11T05:14:55.320Z,17.50
2017-07-11T05:17:23.636Z,17.60
2017-07-11T05:19:52.668Z,17.50
2017-07-11T05:22:20.936Z,17.50
2017-07-11T05:24:49.432Z,17.50
2017-07-11T05:27:18.468Z,17.50
2017-07-11T05:29:46.728Z,17.50
2017-07-11T05:32:15.136Z,17.60
2017-07-11T05:34:43.411Z,17.50
2017-07-11T05:37:12.436Z,17.70
2017-07-11T05:39:40.746Z,17.70
2017-07-11T05:42:09.777Z,17.70
2017-07-11T05:44:38.048Z,17.60
2017-07-11T05:47:06.357Z,17.70
2017-07-11T05:49:35.397Z,17.80
2017-07-11T05:52:03.655Z,17.70
2017-07-11T05:54:32.865Z,17.80
2017-07-11T05:57:01.896Z,17.80
2017-07-11T05:59:30.165Z,17.80
2017-07-11T06:01:58.469Z,17.80
2017-07-11T06:04:27.501Z,17.80
2017-07-11T06:06:55.768Z,17.80
2017-07-11T06:09:24.081Z,17.80
2017-07-11T06:11:53.121Z,17.70
2017-07-11T06:14:21.371Z,17.70
2017-07-11T06:16:49.685Z,17.70
2017-07-11T06:19:18.712Z,17.80
2017-07-11T06:21:46.977Z,17.70
2017-07-11T06:24:15.293Z,17.80
2017-07-11T06:26:43.564Z,17.90
2017-07-11T06:29:11.828Z,18.00
2017-07-11T06:31:40.145Z,18.00
2017-07-11T06:34:08.407Z,18.10
2017-07-11T06:36:36.672Z,18.20
2017-07-11T06:39:05.156Z,18.30
2017-07-11T06:41:34.177Z,18.20
2017-07-11T06:44:02.446Z,18.20
2017-07-11T06:46:30.745Z,18.20
2017-07-11T06:48:59.806Z,18.20
2017-07-11T06:51:28.060Z,18.10
2017-07-11T06:53:56.364Z,18.10
2017-07-11T06:56:25.397Z,18.10
2017-07-11T06:58:53.660Z,18.10
2017-07-11T07:01:21.961Z,18.20
2017-07-11T07:03:50.994Z,18.20
2017-07-11T07:06:19.264Z,18.10
2017-07-11T07:08:47.765Z,18.20
2017-07-11T07:11:16.800Z,18.30
2017-07-11T07:13:45.060Z,18.30
2017-07-11T07:16:13.361Z,18.30
2017-07-11T07:18:42.400Z,18.30
2017-07-11T07:21:10.677Z,18.30
2017-07-11T07:23:38.984Z,18.40
2017-07-11T07:26:07.396Z,18.40
2017-07-11T07:28:35.661Z,18.60
2017-07-11T07:31:03.969Z,18.70
2017-07-11T07:33:32.248Z,18.80
2017-07-11T07:36:00.500Z,18.90
2017-07-11T07:38:28.804Z,19.10
2017-07-11T07:40:57.068Z,19.20
2017-07-11T07:43:25.345Z,19.30
2017-07-11T07:45:53.824Z,19.30
2017-07-11T07:48:22.088Z,19.40
2017-07-11T07:50:50.360Z,19.30
2017-07-11T07:53:18.669Z,19.30
2017-07-11T07:55:46.932Z,19.30
2017-07-11T07:58:15.196Z,19.30
2017-07-11T08:00:43.501Z,19.20
2017-07-11T08:03:11.776Z,19.20
2017-07-11T08:05:40.048Z,19.30
2017-07-11T08:08:08.477Z,19.40
2017-07-11T08:10:38.095Z,19.30
2017-07-11T08:13:06.374Z,19.30
2017-07-11T08:15:34.789Z,19.50
2017-07-11T08:18:03.821Z,19.90
2017-07-11T08:20:32.084Z,19.80
2017-07-11T08:23:00.397Z,19.90
2017-07-11T08:25:29.434Z,20.40
2017-07-11T08:27:57.705Z,20.40
2017-07-11T08:30:26.093Z,20.40
2017-07-11T08:32:54.356Z,20.30
2017-07-11T08:35:23.389Z,20.30
2017-07-11T08:37:51.690Z,20.20
2017-07-11T08:40:19.963Z,20.40
2017-07-11T08:42:48.993Z,20.80
2017-07-11T08:45:17.397Z,20.80
2017-07-11T08:47:45.666Z,21.10
2017-07-11T08:50:14.780Z,21.00
2017-07-11T08:52:43.097Z,21.00
2017-07-11T08:55:11.364Z,20.50
2017-07-11T08:57:40.398Z,19.00
2017-07-11T09:00:08.702Z,18.90
2017-07-11T09:02:37.752Z,18.70
2017-07-11T09:05:06.022Z,18.60
2017-07-11T09:07:34.320Z,18.60
2017-07-11T09:10:03.352Z,19.00
2017-07-11T09:12:31.623Z,18.90
2017-07-11T09:15:00.111Z,19.10
2017-07-11T09:17:28.377Z,19.30
2017-07-11T09:19:57.409Z,19.50
2017-07-11T09:22:25.711Z,19.50
2017-07-11T09:24:54.752Z,19.90
2017-07-11T09:27:23.016Z,19.80
2017-07-11T09:29:51.336Z,20.00
2017-07-11T09:32:20.357Z,20.60
2017-07-11T09:34:48.633Z,20.60
2017-07-11T09:37:16.930Z,20.70
2017-07-11T09:39:45.961Z,20.80
2017-07-11T09:42:14.228Z,20.80
2017-07-11T09:44:42.536Z,20.80
2017-07-11T09:47:10.812Z,20.90
2017-07-11T09:49:39.085Z,20.70
2017-07-11T09:52:07.394Z,20.50
2017-07-11T09:54:35.656Z,20.20
2017-07-11T09:57:03.933Z,20.30
2017-07-11T09:59:33.017Z,20.20
2017-07-11T10:02:02.093Z,20.10
2017-07-11T10:04:31.172Z,20.00
2017-07-11T10:07:00.408Z,20.00
2017-07-11T10:09:28.673Z,19.90
2017-07-11T10:11:56.944Z,20.10
2017-07-11T10:14:25.253Z,20.30
2017-07-11T10:16:53.516Z,20.20
2017-07-11T10:19:21.841Z,20.10
2017-07-11T10:21:50.320Z,19.80
2017-07-11T10:24:18.589Z,19.30
2017-07-11T10:26:47.629Z,18.80
2017-07-11T10:29:15.923Z,18.80
2017-07-11T10:31:44.965Z,18.80
2017-07-11T10:34:13.274Z,18.80
2017-07-11T10:36:42.342Z,19.50
2017-07-11T10:39:10.620Z,19.50
2017-07-11T10:41:39.687Z,20.10
2017-07-11T10:44:08.780Z,20.30
2017-07-11T10:46:37.808Z,20.70
2017-07-11T10:49:06.081Z,20.70
2017-07-11T10:51:34.400Z,21.00
2017-07-11T10:54:02.670Z,21.20
2017-07-11T10:56:30.937Z,21.40
2017-07-11T10:58:59.236Z,21.70
2017-07-11T11:01:27.513Z,21.80
2017-07-11T11:03:55.788Z,21.90
2017-07-11T11:06:24.858Z,21.40
2017-07-11T11:08:53.893Z,21.60
2017-07-11T11:11:22.173Z,21.50
2017-07-11T11:13:50.479Z,22.00
2017-07-11T11:16:18.913Z,22.30
2017-07-11T11:18:47.180Z,22.70
2017-07-11T11:21:15.485Z,22.90
2017-07-11T11:23:43.764Z,22.60
2017-07-11T11:26:12.038Z,22.30
2017-07-11T11:28:40.529Z,22.10
2017-07-11T11:31:09.578Z,22.00
2017-07-11T11:33:37.857Z,22.00
2017-07-11T11:36:06.154Z,22.30
2017-07-11T11:38:34.433Z,22.50
2017-07-11T11:41:02.698Z,22.60
2017-07-11T11:43:31.012Z,22.70
2017-07-11T11:45:59.281Z,22.60
2017-07-11T11:48:28.331Z,22.40
2017-07-11T11:50:56.729Z,22.40
2017-07-11T11:53:25.765Z,22.20
2017-07-11T11:55:54.039Z,22.10
2017-07-11T11:58:22.425Z,22.10
2017-07-11T12:00:51.464Z,22.20
2017-07-11T12:03:19.727Z,22.20
2017-07-11T12:05:48.040Z,22.20
2017-07-11T12:08:17.076Z,22.60
2017-07-11T12:10:45.353Z,22.50
2017-07-11T12:13:13.661Z,23.00
2017-07-11T12:15:41.937Z,23.10
2017-07-11T12:18:10.204Z,23.60
2017-07-11T12:20:38.506Z,23.80
2017-07-11T12:23:06.772Z,24.40
2017-07-11T12:25:35.808Z,24.70
2017-07-11T12:28:04.140Z,24.70
2017-07-11T12:30:32.408Z,24.70
2017-07-11T12:33:00.680Z,24.60
2017-07-11T12:35:28.986Z,24.60
2017-07-11T12:37:57.253Z,24.60
2017-07-11T12:40:25.525Z,24.80
2017-07-11T12:42:54.606Z,25.40
2017-07-11T12:45:23.640Z,25.30
2017-07-11T12:47:51.920Z,25.30
2017-07-11T12:50:20.225Z,24.90
2017-07-11T12:52:49.449Z,24.10
2017-07-11T12:55:17.720Z,24.10
2017-07-11T12:57:46.036Z,23.90
2017-07-11T13:00:14.309Z,23.90
2017-07-11T13:02:42.585Z,23.90
2017-07-11T13:05:10.916Z,23.70
2017-07-11T13:07:39.186Z,23.40
2017-07-11T13:10:07.457Z,23.50
2017-07-11T13:12:35.768Z,23.50
2017-07-11T13:15:04.044Z,23.30
2017-07-11T13:17:33.083Z,23.40
2017-07-11T13:20:01.397Z,23.40
2017-07-11T13:22:29.667Z,23.50
2017-07-11T13:24:57.945Z,23.40
2017-07-11T13:27:26.278Z,23.40
2017-07-11T13:29:55.309Z,23.10
2017-07-11T13:32:23.575Z,23.10
2017-07-11T13:34:51.885Z,23.20
2017-07-11T13:37:20.153Z,23.10
2017-07-11T13:39:48.420Z,22.80
2017-07-11T13:42:16.721Z,22.80
2017-07-11T13:44:44.991Z,22.80
2017-07-11T13:47:13.264Z,22.70
2017-07-11T13:49:41.589Z,22.70
2017-07-11T13:52:09.861Z,22.70
2017-07-11T13:54:38.132Z,22.60
2017-07-11T13:57:06.448Z,22.60
2017-07-11T13:59:35.561Z,22.50
2017-07-11T14:02:03.829Z,22.50
2017-07-11T14:04:32.156Z,22.60
2017-07-11T14:07:00.423Z,22.70
2017-07-11T14:09:28.696Z,22.80
2017-07-11T14:11:57.021Z,22.80
2017-07-11T14:14:26.060Z,22.80
2017-07-11T14:16:54.331Z,22.80
2017-07-11T14:19:22.649Z,22.80
2017-07-11T14:21:50.921Z,23.00
2017-07-11T14:24:19.197Z,23.10
2017-07-11T14:26:47.500Z,23.00
2017-07-11T14:29:16.548Z,23.40
2017-07-11T14:31:44.813Z,23.30
2017-07-11T14:34:13.134Z,23.80
2017-07-11T14:36:41.405Z,24.30
2017-07-11T14:39:09.692Z,24.60
2017-07-11T14:41:38.011Z,24.40
2017-07-11T14:44:06.295Z,24.40
2017-07-11T14:46:34.560Z,24.60
2017-07-11T14:49:02.869Z,24.80
2017-07-11T14:51:31.905Z,24.60
2017-07-11T14:54:00.180Z,24.60
2017-07-11T14:56:28.488Z,24.40
2017-07-11T14:58:56.788Z,23.90
2017-07-11T15:01:25.069Z,23.90
2017-07-11T15:03:53.383Z,24.00
2017-07-11T15:06:21.669Z,24.20
2017-07-11T15:08:49.940Z,24.60
2017-07-11T15:11:18.253Z,24.80
2017-07-11T15:13:46.520Z,24.80
2017-07-11T15:16:14.793Z,24.30
2017-07-11T15:18:43.247Z,24.20
2017-07-11T15:21:11.517Z,24.00
2017-07-11T15:23:39.792Z,23.90
2017-07-11T15:26:08.233Z,24.00
2017-07-11T15:28:36.543Z,24.00
2017-07-11T15:31:04.824Z,24.10
2017-07-11T15:33:33.136Z,24.10
2017-07-11T15:36:01.416Z,24.10
2017-07-11T15:38:29.923Z,24.00
2017-07-11T15:40:59.020Z,24.00
2017-07-11T15:43:27.314Z,24.00
2017-07-11T15:45:55.578Z,24.00
2017-07-11T15:48:23.897Z,24.10
2017-07-11T15:50:52.938Z,24.40
2017-07-11T15:53:21.205Z,24.30
2017-07-11T15:55:49.529Z,24.60
2017-07-11T15:58:17.805Z,24.70
2017-07-11T16:00:46.083Z,24.90
2017-07-11T16:03:14.392Z,25.00
2017-07-11T16:05:42.668Z,24.80
2017-07-11T16:08:10.948Z,24.70
2017-07-11T16:10:39.258Z,24.80
2017-07-11T16:13:07.532Z,24.70
2017-07-11T16:15:36.585Z,24.30
2017-07-11T16:18:05.648Z,24.20
2017-07-11T16:20:34.204Z,24.30
2017-07-11T16:23:02.468Z,24.30
2017-07-11T16:25:30.796Z,24.10
2017-07-11T16:27:59.065Z,24.30
2017-07-11T16:30:27.340Z,24.30
2017-07-11T16:32:55.644Z,24.20
2017-07-11T16:35:23.925Z,24.10
2017-07-11T16:37:52.964Z,23.80
2017-07-11T16:40:21.281Z,23.70
2017-07-11T16:42:49.549Z,23.80
2017-07-11T16:45:17.827Z,23.80
2017-07-11T16:47:46.146Z,23.60
2017-07-11T16:50:15.176Z,23.80
2017-07-11T16:52:43.445Z,23.80
2017-07-11T16:55:11.757Z,23.70
2017-07-11T16:57:40.047Z,23.90
2017-07-11T17:00:08.325Z,24.00
2017-07-11T17:02:36.674Z,24.00
2017-07-11T17:05:04.945Z,23.90
2017-07-11T17:07:33.220Z,23.80
2017-07-11T17:10:01.722Z,23.80
2017-07-11T17:12:30.780Z,23.60
2017-07-11T17:14:59.093Z,23.50
2017-07-11T17:17:27.417Z,23.60
2017-07-11T17:19:55.691Z,23.60
2017-07-11T17:22:24.716Z,23.60
2017-07-11T17:24:53.033Z,23.50
2017-07-11T17:27:22.136Z,23.50
2017-07-11T17:29:50.409Z,23.50
2017-07-11T17:32:18.717Z,23.60
2017-07-11T17:34:46.995Z,23.50
2017-07-11T17:37:16.065Z,23.30
2017-07-11T17:39:44.362Z,23.20
2017-07-11T17:42:12.633Z,23.10
2017-07-11T17:44:40.904Z,23.00
2017-07-11T17:47:09.222Z,22.90
2017-07-11T17:49:38.490Z,22.70
2017-07-11T17:52:06.777Z,22.70
2017-07-11T17:54:35.844Z,22.60
2017-07-11T17:57:04.883Z,22.60
2017-07-11T17:59:33.784Z,22.60
2017-07-11T18:02:02.905Z,22.60
2017-07-11T18:04:31.170Z,22.60
2017-07-11T18:06:59.448Z,22.60
2017-07-11T18:09:27.749Z,22.60
2017-07-11T18:11:56.021Z,22.60
2017-07-11T18:14:25.052Z,22.60
2017-07-11T18:16:53.466Z,22.60
2017-07-11T18:19:22.500Z,22.40
2017-07-11T18:21:50.796Z,22.30
2017-07-11T18:24:19.087Z,22.40
2017-07-11T18:26:47.358Z,22.40
2017-07-11T18:29:15.639Z,22.30
2017-07-11T18:31:44.049Z,22.30
2017-07-11T18:34:13.100Z,22.40
2017-07-11T18:36:41.371Z,22.40
2017-07-11T18:39:09.692Z,22.40
2017-07-11T18:41:38.044Z,22.40
2017-07-11T18:44:06.321Z,22.30
2017-07-11T18:46:34.745Z,22.10
2017-07-11T18:49:03.795Z,22.00
2017-07-11T18:51:32.061Z,22.00
2017-07-11T18:54:00.360Z,22.00
2017-07-11T18:56:29.400Z,21.80
2017-07-11T18:58:57.668Z,21.70
2017-07-11T19:01:25.973Z,21.80
2017-07-11T19:03:54.256Z,21.70
2017-07-11T19:06:22.527Z,21.60
2017-07-11T19:08:50.845Z,21.60
2017-07-11T19:11:19.873Z,21.60
2017-07-11T19:13:48.137Z,21.50
2017-07-11T19:16:16.460Z,21.50
2017-07-11T19:18:44.728Z,21.50
2017-07-11T19:21:13.009Z,21.40
2017-07-11T19:23:41.325Z,21.30
2017-07-11T19:26:10.364Z,21.20
2017-07-11T19:28:38.637Z,21.20
2017-07-11T19:31:07.153Z,21.20
2017-07-11T19:33:35.433Z,21.00
2017-07-11T19:36:03.708Z,21.00
2017-07-11T19:38:32.025Z,20.90
2017-07-11T19:41:00.325Z,20.80
2017-07-11T19:43:28.592Z,20.70
2017-07-11T19:45:56.974Z,20.70
2017-07-11T19:48:25.241Z,20.60
2017-07-11T19:50:53.504Z,20.60
2017-07-11T19:53:22.765Z,20.50
2017-07-11T19:55:51.084Z,20.40
2017-07-11T19:58:20.189Z,20.40
2017-07-11T20:00:48.664Z,20.40
2017-07-11T20:03:16.956Z,20.30
2017-07-11T20:05:45.221Z,20.20
2017-07-11T20:08:13.703Z,20.20
2017-07-11T20:10:42.992Z,20.00
2017-07-11T20:13:12.025Z,19.90
2017-07-11T20:15:40.333Z,19.80
2017-07-11T20:18:09.370Z,19.80
2017-07-11T20:20:37.664Z,19.70
2017-07-11T20:23:05.968Z,19.60
2017-07-11T20:25:34.241Z,19.60
2017-07-11T20:28:02.508Z,19.50
2017-07-11T20:30:30.831Z,19.50
2017-07-11T20:32:59.104Z,19.40
2017-07-11T20:35:27.377Z,19.40
2017-07-11T20:37:55.681Z,19.30
2017-07-11T20:40:23.956Z,19.30
2017-07-11T20:42:52.212Z,19.30
2017-07-11T20:45:20.532Z,19.30
2017-07-11T20:47:48.801Z,19.30
2017-07-11T20:50:17.069Z,19.20
2017-07-11T20:52:45.391Z,19.20
2017-07-11T20:55:13.649Z,19.20
2017-07-11T20:57:41.925Z,19.10
2017-07-11T21:00:10.236Z,19.10
2017-07-11T21:02:38.504Z,19.10
2017-07-11T21:05:06.772Z,19.00
2017-07-11T21:07:35.858Z,18.90
2017-07-11T21:10:04.134Z,18.90
2017-07-11T21:12:33.164Z,18.80
2017-07-11T21:15:01.472Z,18.80
2017-07-11T21:17:29.748Z,18.90
2017-07-11T21:19:58.024Z,19.00
2017-07-11T21:22:26.358Z,18.80
2017-07-11T21:24:54.624Z,18.70
2017-07-11T21:27:22.893Z,18.70
2017-07-11T21:29:51.234Z,18.70
2017-07-11T21:32:20.264Z,18.60
2017-07-11T21:34:48.545Z,18.60
2017-07-11T21:37:16.876Z,18.50
2017-07-11T21:39:45.208Z,18.50
2017-07-11T21:42:13.491Z,18.50
2017-07-11T21:44:41.814Z,18.50
2017-07-11T21:47:10.853Z,18.40
2017-07-11T21:49:39.117Z,18.40
2017-07-11T21:52:07.432Z,18.40
2017-07-11T21:54:36.471Z,18.30
2017-07-11T21:57:04.739Z,18.30
2017-07-11T21:59:33.045Z,18.20
2017-07-11T22:02:01.316Z,18.10
2017-07-11T22:04:29.598Z,18.10
2017-07-11T22:06:58.002Z,18.10
2017-07-11T22:09:27.097Z,18.00
2017-07-11T22:11:56.137Z,17.90
2017-07-11T22:14:24.449Z,17.80
2017-07-11T22:16:52.732Z,17.80
2017-07-11T22:19:21.036Z,17.90
2017-07-11T22:21:49.346Z,17.70
2017-07-11T22:24:17.621Z,17.60
2017-07-11T22:26:45.901Z,17.60
2017-07-11T22:29:14.213Z,17.50
2017-07-11T22:31:42.483Z,17.40
2017-07-11T22:34:10.748Z,17.30
2017-07-11T22:36:39.058Z,17.30
2017-07-11T22:39:07.325Z,17.30
2017-07-11T22:41:35.592Z,17.40
2017-07-11T22:44:03.955Z,17.20
2017-07-11T22:46:32.218Z,17.30
2017-07-11T22:49:00.486Z,17.20
2017-07-11T22:51:29.572Z,17.00
2017-07-11T22:53:57.857Z,17.00
2017-07-11T22:56:26.117Z,17.00
2017-07-11T22:58:54.437Z,17.00
2017-07-11T23:01:23.463Z,16.90
2017-07-11T23:03:51.737Z,16.90
2017-07-11T23:06:20.048Z,16.90
2017-07-11T23:08:48.309Z,17.00
2017-07-11T23:11:17.339Z,17.10
2017-07-11T23:13:45.681Z,17.00
2017-07-11T23:16:13.949Z,17.10
2017-07-11T23:18:42.217Z,17.30
2017-07-11T23:21:10.584Z,17.30
2017-07-11T23:23:38.864Z,17.20
2017-07-11T23:26:07.141Z,17.10
2017-07-11T23:28:35.444Z,17.00
2017-07-11T23:31:03.712Z,17.00
2017-07-11T23:33:31.997Z,17.00
2017-07-11T23:36:00.309Z,17.10
2017-07-11T23:38:29.340Z,17.00
2017-07-11T23:40:57.632Z,16.90
2017-07-11T23:43:25.941Z,16.90
2017-07-11T23:45:54.213Z,16.80
2017-07-11T23:48:22.486Z,16.80
2017-07-11T23:50:50.893Z,16.80
2017-07-11T23:53:19.925Z,16.80
2017-07-11T23:55:48.189Z,16.80
2017-07-11T23:58:16.488Z,16.90
